Time;durP1;ratioP1;P1;durP2;ratioP2;P2;SDS_P1;SDS_P2;PMS_P1;PMS_P2;Temp;Humidity;BMP_temperature;BMP_pressure;BME280_temperature;BME280_humidity;BME280_pressure;Samples;Min_cycle;Max_cycle;Signal;HPM_P1;HPM_P2
2022/10/18 00:00:53;;;;;;;9.20;2.60;;;14.90;99.90;;;;;;4997270;28;20170;-78
2022/10/18 00:03:19;;;;;;;9.60;2.00;;;14.90;99.90;;;;;;4979881;28;20177;-78
2022/10/18 00:05:46;;;;;;;11.30;2.00;;;14.90;99.90;;;;;;4979181;28;20264;-78
2022/10/18 00:08:12;;;;;;;11.37;2.23;;;14.90;99.90;;;;;;4996775;28;20198;-78
2022/10/18 00:10:37;;;;;;;10.20;2.40;;;14.90;99.90;;;;;;4996612;28;20180;-78
2022/10/18 00:13:03;;;;;;;4.47;2.00;;;14.90;99.90;;;;;;4995664;28;20193;-78
2022/10/18 00:15:28;;;;;;;8.50;2.30;;;14.90;99.90;;;;;;4978865;28;20209;-78
2022/10/18 00:17:54;;;;;;;15.90;3.07;;;14.90;99.90;;;;;;4996535;28;20622;-79
2022/10/18 00:20:19;;;;;;;4.57;1.90;;;14.90;99.90;;;;;;4996742;28;20248;-78
2022/10/18 00:22:45;;;;;;;8.80;1.80;;;14.90;99.90;;;;;;4979163;28;20181;-78
2022/10/18 00:25:11;;;;;;;6.37;2.10;;;14.90;99.90;;;;;;4996641;28;20256;-78
2022/10/18 00:27:36;;;;;;;12.87;2.50;;;14.90;99.90;;;;;;4996341;28;20586;-80
2022/10/18 00:30:03;;;;;;;6.20;1.90;;;14.90;99.90;;;;;;4996461;28;20568;-78
2022/10/18 00:32:28;;;;;;;11.77;2.10;;;14.90;99.90;;;;;;4978587;28;20206;-78
2022/10/18 00:34:54;;;;;;;7.20;2.20;;;14.90;99.90;;;;;;4996511;28;20180;-78
2022/10/18 00:37:19;;;;;;;7.80;2.10;;;14.90;99.90;;;;;;4996351;28;20170;-78
2022/10/18 00:39:45;;;;;;;9.43;2.03;;;14.90;99.90;;;;;;4995901;28;20240;-77
2022/10/18 00:42:16;;;;;;;14.23;2.80;;;14.90;99.90;;;;;;4978510;28;20542;-78
2022/10/18 00:44:41;;;;;;;8.37;2.30;;;14.90;99.90;;;;;;4996314;28;20154;-78
2022/10/18 00:47:09;;;;;;;10.77;1.97;;;14.90;99.90;;;;;;4995963;28;20669;-78
2022/10/18 00:49:48;;;;;;;12.77;2.77;;;14.90;99.90;;;;;;4995597;28;20541;-78
2022/10/18 00:52:28;;;;;;;16.03;2.53;;;14.90;99.90;;;;;;4996365;28;20613;-78
2022/10/18 00:54:55;;;;;;;10.80;2.40;;;14.90;99.90;;;;;;4995935;28;20172;-80
2022/10/18 00:57:21;;;;;;;6.97;2.30;;;14.90;99.90;;;;;;4996031;28;20646;-78
2022/10/18 00:59:47;;;;;;;7.50;2.20;;;14.90;99.90;;;;;;4995732;28;20240;-78
2022/10/18 01:02:16;;;;;;;10.27;2.30;;;14.90;99.90;;;;;;4996417;28;20212;-78
2022/10/18 01:04:44;;;;;;;8.63;1.97;;;14.90;99.90;;;;;;4995754;28;20188;-78
2022/10/18 01:07:19;;;;;;;7.17;2.40;;;14.90;99.90;;;;;;4995909;28;20260;-78
2022/10/18 01:10:09;;;;;;;11.40;2.60;;;14.90;99.90;;;;;;4996215;28;20279;-79
2022/10/18 01:13:08;;;;;;;14.33;2.30;;;14.80;99.90;;;;;;4996160;28;20198;-79
2022/10/18 01:15:55;;;;;;;6.93;2.40;;;14.80;99.90;;;;;;4978703;28;20169;-76
2022/10/18 01:18:33;;;;;;;5.93;2.40;;;14.80;99.90;;;;;;4978123;28;20198;-78
2022/10/18 01:21:21;;;;;;;7.67;2.43;;;14.80;99.90;;;;;;4995820;28;20192;-78
2022/10/18 01:24:24;;;;;;;5.73;2.27;;;14.80;99.90;;;;;;4997330;28;20228;-78
2022/10/18 01:27:15;;;;;;;11.07;2.40;;;14.80;99.90;;;;;;4999582;28;20177;-78
2022/10/18 01:30:15;;;;;;;13.83;2.43;;;14.90;99.90;;;;;;4999837;28;20189;-78
2022/10/18 01:32:47;;;;;;;11.97;2.67;;;14.80;99.90;;;;;;4999845;28;20201;-78
2022/10/18 01:35:18;;;;;;;14.93;2.73;;;14.80;99.90;;;;;;4999191;28;20181;-78
2022/10/18 01:37:47;;;;;;;8.27;2.40;;;14.90;99.90;;;;;;4999525;28;20176;-79
2022/10/18 01:40:17;;;;;;;11.47;2.63;;;14.80;99.90;;;;;;4999932;28;20748;-78
2022/10/18 01:42:44;;;;;;;7.23;3.20;;;14.90;99.90;;;;;;4982007;28;20204;-79
2022/10/18 01:45:12;;;;;;;10.53;2.30;;;14.80;99.90;;;;;;4982185;28;20260;-78
2022/10/18 01:47:39;;;;;;;4.93;2.50;;;14.80;99.90;;;;;;4998940;28;20702;-78
2022/10/18 01:50:05;;;;;;;7.97;2.57;;;14.80;99.90;;;;;;4999575;28;20275;-78
2022/10/18 01:52:31;;;;;;;11.70;2.77;;;14.80;99.90;;;;;;4999603;28;20211;-78
2022/10/18 01:54:59;;;;;;;4.03;2.57;;;14.80;99.90;;;;;;4998916;28;20169;-78
2022/10/18 01:57:39;;;;;;;9.83;2.97;;;14.80;99.90;;;;;;4981339;28;20174;-78
2022/10/18 02:00:16;;;;;;;11.90;2.97;;;14.90;99.90;;;;;;5000080;28;20205;-78
2022/10/18 02:03:03;;;;;;;7.93;2.80;;;14.80;99.90;;;;;;5000053;28;20244;-78
2022/10/18 02:05:55;;;;;;;8.83;3.10;;;14.80;99.90;;;;;;4982697;28;20193;-78
2022/10/18 02:08:26;;;;;;;10.73;2.87;;;14.90;99.90;;;;;;4983653;28;20613;-78
2022/10/18 02:11:07;;;;;;;9.63;2.30;;;14.80;99.90;;;;;;5005441;28;20197;-78
2022/10/18 02:13:40;;;;;;;7.53;2.50;;;14.90;99.90;;;;;;5004716;28;20579;-79
2022/10/18 02:16:15;;;;;;;22.20;2.80;;;14.90;99.90;;;;;;4998726;28;20529;-78
2022/10/18 02:18:47;;;;;;;9.20;2.30;;;14.90;99.90;;;;;;4998644;28;20284;-78
2022/10/18 02:21:16;;;;;;;9.53;2.37;;;14.90;99.90;;;;;;4980755;28;20162;-78
2022/10/18 02:23:44;;;;;;;11.00;2.53;;;14.90;99.90;;;;;;4998638;28;20235;-78
2022/10/18 02:26:10;;;;;;;7.07;2.43;;;14.80;99.90;;;;;;4998595;28;20178;-78
2022/10/18 02:28:36;;;;;;;7.03;2.00;;;14.90;99.90;;;;;;4998311;28;20208;-78
2022/10/18 02:31:14;;;;;;;7.73;2.60;;;14.90;99.90;;;;;;4978459;28;20267;-79
2022/10/18 02:33:57;;;;;;;5.03;2.70;;;14.90;99.90;;;;;;4996155;28;20205;-79
2022/10/18 02:36:51;;;;;;;4.83;2.67;;;14.90;99.90;;;;;;4997675;28;20166;-78
2022/10/18 02:39:22;;;;;;;5.87;2.40;;;14.90;99.90;;;;;;4996141;28;20582;-78
2022/10/18 02:41:48;;;;;;;11.33;2.87;;;14.90;99.90;;;;;;4997829;28;20162;-78
2022/10/18 02:44:13;;;;;;;7.93;2.60;;;14.90;99.90;;;;;;4998027;28;20178;-78
2022/10/18 02:46:39;;;;;;;3.63;2.70;;;14.90;99.90;;;;;;4998306;28;20241;-77
2022/10/18 02:49:05;;;;;;;5.07;2.60;;;14.90;99.90;;;;;;4997932;28;20197;-78
2022/10/18 02:51:30;;;;;;;4.23;2.53;;;14.90;99.90;;;;;;4998104;28;20178;-78
2022/10/18 02:53:56;;;;;;;8.27;2.10;;;14.90;99.90;;;;;;4997838;28;20208;-78
2022/10/18 02:56:22;;;;;;;8.90;2.80;;;14.90;99.90;;;;;;4998014;28;20174;-78
2022/10/18 02:58:47;;;;;;;7.40;2.60;;;14.90;99.90;;;;;;5023489;22;20894;-81
2022/10/18 03:01:13;;;;;;;7.73;2.63;;;14.90;99.90;;;;;;4996755;28;20170;-81
2022/10/18 03:03:38;;;;;;;7.47;3.13;;;14.90;99.90;;;;;;4996383;28;20178;-80
2022/10/18 03:06:04;;;;;;;9.37;3.00;;;14.90;99.90;;;;;;4980078;28;20312;-81
2022/10/18 03:08:29;;;;;;;13.97;2.60;;;14.90;99.90;;;;;;4997300;28;20674;-82
2022/10/18 03:10:55;;;;;;;6.80;2.47;;;14.90;99.90;;;;;;4980636;28;20260;-82
2022/10/18 03:13:20;;;;;;;5.03;2.53;;;14.90;99.90;;;;;;4980203;28;20205;-81
2022/10/18 03:15:47;;;;;;;11.13;3.07;;;14.90;99.90;;;;;;4997868;28;20170;-80
2022/10/18 03:18:13;;;;;;;3.20;2.60;;;14.90;99.90;;;;;;4998669;28;20292;-80
2022/10/18 03:20:39;;;;;;;9.10;2.23;;;14.90;99.90;;;;;;4981026;28;20198;-80
2022/10/18 03:23:06;;;;;;;5.40;2.40;;;14.90;99.90;;;;;;4999049;28;20655;-80
2022/10/18 03:25:31;;;;;;;15.13;3.77;;;14.90;99.90;;;;;;4981143;28;20536;-79
2022/10/18 03:27:57;;;;;;;9.57;2.47;;;14.90;99.90;;;;;;4998910;28;20205;-80
2022/10/18 03:30:23;;;;;;;13.93;2.10;;;14.90;99.90;;;;;;4998710;28;20229;-80
2022/10/18 03:32:48;;;;;;;11.60;2.50;;;14.90;99.90;;;;;;4999044;28;20260;-80
2022/10/18 03:35:14;;;;;;;8.20;2.03;;;14.90;99.90;;;;;;4999291;28;20170;-80
2022/10/18 03:37:39;;;;;;;5.70;2.40;;;14.90;99.90;;;;;;4998011;28;20648;-79
2022/10/18 03:40:07;;;;;;;7.27;2.33;;;14.90;99.90;;;;;;4998373;28;20192;-81
2022/10/18 03:42:33;;;;;;;13.17;3.03;;;14.90;99.90;;;;;;4997923;28;20177;-81
2022/10/18 03:44:58;;;;;;;4.13;2.23;;;14.90;99.90;;;;;;4998122;28;20174;-80
2022/10/18 03:47:24;;;;;;;8.77;2.50;;;14.90;99.90;;;;;;4997298;28;20201;-80
2022/10/18 03:49:49;;;;;;;12.27;2.53;;;14.90;99.90;;;;;;4998138;28;20208;-80
2022/10/18 03:52:15;;;;;;;7.00;2.40;;;14.80;99.90;;;;;;4980988;28;20608;-81
2022/10/18 03:54:40;;;;;;;8.93;2.50;;;14.90;99.90;;;;;;4997839;28;20196;-79
2022/10/18 03:57:06;;;;;;;10.30;2.20;;;14.90;99.90;;;;;;4997855;28;20667;-80
2022/10/18 03:59:31;;;;;;;4.07;2.20;;;14.80;99.90;;;;;;4998204;28;20240;-80
2022/10/18 04:01:58;;;;;;;5.13;2.07;;;14.90;99.90;;;;;;4980507;28;20235;-80
2022/10/18 04:04:23;;;;;;;3.07;2.10;;;14.90;99.90;;;;;;4997807;28;20589;-81
2022/10/18 04:06:49;;;;;;;7.03;1.90;;;14.80;99.90;;;;;;4980684;28;20272;-80
2022/10/18 04:09:14;;;;;;;10.40;2.40;;;14.90;99.90;;;;;;4998034;28;20271;-80
2022/10/18 04:11:40;;;;;;;5.90;2.35;;;14.80;99.90;;;;;;4997936;28;20189;-80
2022/10/18 04:14:06;;;;;;;8.87;2.27;;;14.90;99.90;;;;;;4980096;28;20268;-79
2022/10/18 04:16:31;;;;;;;5.40;2.13;;;14.80;99.90;;;;;;4998166;28;20628;-79
2022/10/18 04:18:57;;;;;;;9.83;2.30;;;14.80;99.90;;;;;;4997278;28;20284;-81
2022/10/18 04:21:22;;;;;;;10.40;2.67;;;14.80;99.90;;;;;;4979590;28;20174;-82
2022/10/18 04:23:49;;;;;;;7.37;2.70;;;14.80;99.90;;;;;;4980131;28;20185;-80
2022/10/18 04:26:16;;;;;;;13.97;4.17;;;14.80;99.90;;;;;;4997647;28;20751;-80
2022/10/18 04:28:42;;;;;;;9.10;2.70;;;14.80;99.90;;;;;;4997742;28;20185;-80
2022/10/18 04:31:09;;;;;;;11.80;3.17;;;14.80;99.90;;;;;;4998324;28;20186;-80
2022/10/18 04:33:34;;;;;;;10.60;2.33;;;14.80;99.90;;;;;;4997031;28;20209;-81
2022/10/18 04:36:00;;;;;;;6.30;2.17;;;14.80;99.90;;;;;;4963546;28;20592;-80
2022/10/18 04:38:26;;;;;;;5.90;2.70;;;14.90;99.90;;;;;;4997550;28;20209;-81
2022/10/18 04:40:51;;;;;;;12.73;2.73;;;14.90;99.90;;;;;;4997889;28;20251;-81
2022/10/18 04:43:17;;;;;;;6.23;2.33;;;14.90;99.90;;;;;;4997200;28;20181;-80
2022/10/18 04:45:45;;;;;;;9.13;2.70;;;14.90;99.90;;;;;;4998211;28;20185;-81
2022/10/18 04:48:10;;;;;;;11.17;2.63;;;14.90;99.90;;;;;;4998084;28;20755;-80
2022/10/18 04:50:36;;;;;;;5.57;2.47;;;14.90;99.90;;;;;;4998047;28;20201;-80
2022/10/18 04:53:01;;;;;;;12.73;2.70;;;14.80;99.90;;;;;;4978216;28;20312;-81
2022/10/18 04:55:27;;;;;;;4.87;2.97;;;14.90;99.90;;;;;;4997959;28;20658;-81
2022/10/18 04:57:53;;;;;;;4.63;3.17;;;14.90;99.90;;;;;;4998313;28;20648;-80
2022/10/18 05:00:18;;;;;;;5.90;3.17;;;14.90;99.90;;;;;;4998710;28;20220;-80
2022/10/18 05:02:44;;;;;;;11.30;3.07;;;14.90;99.90;;;;;;5004172;28;20236;-80
2022/10/18 05:05:09;;;;;;;6.47;3.43;;;14.90;99.90;;;;;;4989077;28;20181;-80
2022/10/18 05:07:35;;;;;;;8.23;2.60;;;14.90;99.90;;;;;;5000632;28;20177;-80
2022/10/18 05:10:00;;;;;;;8.83;4.03;;;14.90;99.90;;;;;;4994618;28;20220;-80
2022/10/18 05:12:26;;;;;;;5.27;3.67;;;14.90;99.90;;;;;;4980147;28;20212;-79
2022/10/18 05:14:51;;;;;;;7.73;3.30;;;14.90;99.90;;;;;;4980761;28;20174;-80
2022/10/18 05:17:17;;;;;;;11.60;3.63;;;14.90;99.90;;;;;;4980337;28;20711;-79
2022/10/18 05:19:42;;;;;;;11.27;3.43;;;14.90;99.90;;;;;;4978997;28;20525;-81
2022/10/18 05:22:08;;;;;;;7.80;3.50;;;14.90;99.90;;;;;;4979364;28;20619;-80
2022/10/18 05:24:33;;;;;;;7.97;3.43;;;14.90;99.90;;;;;;4980362;28;20678;-79
2022/10/18 05:26:59;;;;;;;6.70;3.67;;;14.90;99.90;;;;;;4997626;28;20184;-80
2022/10/18 05:29:25;;;;;;;6.10;3.53;;;14.90;99.90;;;;;;4997832;28;20190;-80
2022/10/18 05:31:50;;;;;;;13.77;4.20;;;14.90;99.90;;;;;;4997804;28;20650;-79
2022/10/18 05:34:16;;;;;;;8.03;3.10;;;14.90;99.90;;;;;;4996096;28;20235;-80
2022/10/18 05:36:42;;;;;;;7.67;3.20;;;14.90;99.90;;;;;;4997793;28;20181;-79
2022/10/18 05:39:08;;;;;;;10.33;3.03;;;14.90;99.90;;;;;;4980112;28;20572;-81
2022/10/18 05:41:33;;;;;;;7.27;3.00;;;14.90;99.90;;;;;;4979428;28;20180;-81
2022/10/18 05:44:03;;;;;;;3.90;2.43;;;14.90;99.90;;;;;;4997546;28;20550;-80
2022/10/18 05:46:29;;;;;;;2.80;2.50;;;14.90;99.90;;;;;;4996395;28;20235;-81
2022/10/18 05:48:55;;;;;;;4.70;2.93;;;14.90;99.90;;;;;;4979136;28;20202;-81
2022/10/18 05:51:20;;;;;;;8.03;3.03;;;14.90;99.90;;;;;;4978224;28;20602;-81
2022/10/18 05:53:46;;;;;;;12.43;3.83;;;14.90;99.90;;;;;;4996666;28;20201;-81
2022/10/18 05:56:12;;;;;;;4.63;2.53;;;14.90;99.90;;;;;;4996890;28;20223;-81
2022/10/18 05:58:38;;;;;;;5.67;2.60;;;14.80;99.90;;;;;;4996738;28;20185;-81
2022/10/18 06:01:04;;;;;;;5.30;2.47;;;14.90;99.90;;;;;;4979002;28;20608;-81
2022/10/18 06:03:30;;;;;;;6.87;2.10;;;14.80;99.90;;;;;;4996827;28;20177;-81
2022/10/18 06:06:08;;;;;;;10.07;2.70;;;14.80;99.90;;;;;;4996434;28;20588;-81
2022/10/18 06:08:34;;;;;;;8.57;2.83;;;14.80;99.90;;;;;;4996538;28;20557;-81
2022/10/18 06:11:05;;;;;;;6.40;3.47;;;14.80;99.90;;;;;;4998376;28;20257;-81
2022/10/18 06:13:31;;;;;;;12.57;3.40;;;14.80;99.90;;;;;;4998230;28;20203;-80
2022/10/18 06:15:56;;;;;;;5.37;3.63;;;14.80;99.90;;;;;;4998102;28;20170;-81
2022/10/18 06:18:22;;;;;;;6.50;3.37;;;14.90;99.90;;;;;;4998644;28;20178;-81
2022/10/18 06:20:47;;;;;;;8.80;3.70;;;14.90;99.90;;;;;;4999399;28;20219;-81
2022/10/18 06:23:13;;;;;;;5.67;3.57;;;14.90;99.90;;;;;;4999280;28;20253;-81
2022/10/18 06:25:38;;;;;;;9.80;3.10;;;14.90;99.90;;;;;;4999426;28;20723;-81
2022/10/18 06:28:05;;;;;;;10.60;3.17;;;14.80;99.90;;;;;;4979932;28;20185;-81
2022/10/18 06:30:32;;;;;;;10.40;4.30;;;14.80;99.90;;;;;;4997850;28;20256;-81
2022/10/18 06:32:59;;;;;;;19.13;3.80;;;14.80;99.90;;;;;;4981570;28;20212;-82
2022/10/18 06:35:25;;;;;;;19.83;4.00;;;14.90;99.90;;;;;;4998800;28;20177;-81
2022/10/18 06:37:50;;;;;;;16.93;4.93;;;14.90;99.90;;;;;;4999158;28;20204;-81
2022/10/18 06:40:16;;;;;;;8.63;4.40;;;14.80;99.90;;;;;;4981733;28;20200;-82
2022/10/18 06:42:42;;;;;;;9.97;4.90;;;14.90;99.90;;;;;;4982743;28;20177;-82
2022/10/18 06:45:08;;;;;;;13.40;5.57;;;14.90;99.90;;;;;;4983835;28;20181;-82
2022/10/18 06:47:34;;;;;;;7.13;5.33;;;14.90;99.90;;;;;;4982143;28;20205;-81
2022/10/18 06:49:59;;;;;;;11.73;5.47;;;14.90;99.90;;;;;;4999797;28;20702;-81
2022/10/18 06:52:25;;;;;;;12.70;5.93;;;14.90;99.90;;;;;;4981528;28;20202;-81
2022/10/18 06:54:51;;;;;;;11.07;4.97;;;14.90;99.90;;;;;;4981119;28;20169;-81
2022/10/18 06:57:17;;;;;;;11.87;5.23;;;14.90;99.90;;;;;;4981084;28;20174;-81
2022/10/18 06:59:42;;;;;;;14.47;5.43;;;14.90;99.90;;;;;;4998566;28;20205;-81
2022/10/18 07:02:13;;;;;;;13.23;6.27;;;14.90;99.90;;;;;;4997654;28;20227;-81
2022/10/18 07:04:38;;;;;;;7.73;5.00;;;14.90;99.90;;;;;;4997751;28;20170;-81
2022/10/18 07:07:04;;;;;;;12.53;5.10;;;15.00;99.90;;;;;;4997511;28;20192;-81
2022/10/18 07:09:29;;;;;;;8.33;5.27;;;15.00;99.90;;;;;;4997193;28;20551;-81
2022/10/18 07:11:55;;;;;;;12.23;4.87;;;14.90;99.90;;;;;;4997278;28;20174;-81
2022/10/18 07:14:20;;;;;;;6.87;5.40;;;15.00;99.90;;;;;;4997395;28;20177;-80
2022/10/18 07:16:46;;;;;;;9.77;6.73;;;15.00;99.90;;;;;;4996829;28;20173;-81
2022/10/18 07:19:13;;;;;;;10.43;7.57;;;15.00;99.90;;;;;;4979917;28;20201;-81
2022/10/18 07:21:39;;;;;;;15.10;9.17;;;15.10;99.90;;;;;;4996736;28;20176;-80
2022/10/18 07:24:05;;;;;;;22.60;13.13;;;15.10;99.90;;;;;;4979709;28;20661;-80
2022/10/18 07:26:32;;;;;;;21.73;13.77;;;15.10;99.90;;;;;;4998818;28;20173;-80
2022/10/18 07:29:03;;;;;;;27.13;14.00;;;15.20;99.90;;;;;;5002419;28;20186;-82
2022/10/18 07:31:28;;;;;;;24.43;14.87;;;15.20;99.90;;;;;;5019624;28;20230;-82
2022/10/18 07:33:54;;;;;;;20.57;13.57;;;15.20;99.90;;;;;;5020026;28;20213;-82
2022/10/18 07:36:20;;;;;;;20.53;14.17;;;15.30;99.90;;;;;;5020714;28;20174;-82
2022/10/18 07:38:46;;;;;;;24.33;14.23;;;15.30;99.90;;;;;;5020958;28;20166;-82
2022/10/18 07:41:12;;;;;;;21.87;13.17;;;15.40;99.90;;;;;;4996601;28;20190;-82
2022/10/18 07:43:46;;;;;;;16.70;11.47;;;15.40;99.90;;;;;;5002264;28;20189;-82
2022/10/18 07:46:13;;;;;;;22.70;14.80;;;15.40;99.90;;;;;;4984892;28;20192;-82
2022/10/18 07:48:40;;;;;;;26.17;17.83;;;15.40;99.90;;;;;;4985958;28;20189;-82
2022/10/18 07:51:06;;;;;;;31.83;19.27;;;15.40;99.90;;;;;;4985866;28;20189;-82
2022/10/18 07:53:33;;;;;;;32.07;19.70;;;15.50;99.90;;;;;;5002977;28;20213;-82
2022/10/18 07:56:00;;;;;;;38.53;19.87;;;15.50;99.90;;;;;;5003196;28;20193;-82
2022/10/18 07:58:26;;;;;;;29.87;18.10;;;15.60;99.90;;;;;;4985529;28;20184;-81
2022/10/18 08:00:52;;;;;;;32.43;19.27;;;15.60;99.90;;;;;;4984764;28;20587;-82
2022/10/18 08:03:18;;;;;;;34.10;18.87;;;15.60;99.90;;;;;;5002507;28;20181;-81
2022/10/18 08:05:50;;;;;;;41.67;23.57;;;15.70;99.90;;;;;;5002302;28;20656;-81
2022/10/18 08:08:16;;;;;;;41.47;23.67;;;15.70;99.90;;;;;;5001436;28;20158;-82
2022/10/18 08:10:41;;;;;;;39.20;23.27;;;15.70;99.90;;;;;;5002516;28;20252;-82
2022/10/18 08:13:07;;;;;;;43.13;24.80;;;15.70;99.90;;;;;;5001867;28;20569;-82
2022/10/18 08:15:32;;;;;;;38.93;22.23;;;15.70;99.90;;;;;;5002263;28;20177;-82
2022/10/18 08:17:58;;;;;;;37.60;21.40;;;15.80;99.90;;;;;;5000744;28;20178;-81
2022/10/18 08:20:23;;;;;;;39.63;23.37;;;15.80;99.90;;;;;;4982820;28;20198;-82
2022/10/18 08:22:50;;;;;;;38.73;23.30;;;15.80;99.90;;;;;;5000847;28;20627;-82
2022/10/18 08:25:15;;;;;;;43.60;26.07;;;15.80;99.90;;;;;;5000820;28;20551;-82
2022/10/18 08:27:41;;;;;;;41.17;23.60;;;15.80;99.90;;;;;;5000427;28;20201;-82
2022/10/18 08:30:08;;;;;;;43.33;23.00;;;15.80;99.90;;;;;;5001866;28;20190;-82
2022/10/18 08:32:34;;;;;;;41.17;21.93;;;15.80;99.90;;;;;;5000709;28;20658;-82
2022/10/18 08:34:59;;;;;;;45.80;24.87;;;15.80;99.90;;;;;;5000373;28;20303;-82
2022/10/18 08:37:25;;;;;;;49.93;26.53;;;15.80;99.90;;;;;;4999773;28;20231;-81
2022/10/18 08:39:50;;;;;;;50.23;25.90;;;15.80;99.90;;;;;;4983413;28;20200;-82
2022/10/18 08:42:33;;;;;;;46.40;25.47;;;15.90;99.90;;;;;;5000470;28;20174;-82
2022/10/18 08:44:59;;;;;;;61.30;30.97;;;15.80;99.90;;;;;;4996911;28;20177;-82
2022/10/18 08:47:35;;;;;;;59.77;33.60;;;15.90;99.90;;;;;;4982750;28;20268;-82
2022/10/18 08:50:10;;;;;;;69.90;35.07;;;15.90;99.90;;;;;;4999885;28;20247;-82
2022/10/18 08:52:47;;;;;;;63.40;32.93;;;15.90;99.90;;;;;;4981960;28;20203;-82
2022/10/18 08:55:51;;;;;;;72.80;34.97;;;16.00;99.90;;;;;;4982047;28;20184;-82
2022/10/18 08:58:19;;;;;;;73.43;36.63;;;16.00;99.90;;;;;;4981874;28;20594;-82
2022/10/18 09:00:51;;;;;;;85.73;39.37;;;16.00;99.90;;;;;;4981865;28;20221;-81
2022/10/18 09:03:55;;;;;;;88.77;40.50;;;16.00;99.90;;;;;;4982317;28;20225;-81
2022/10/18 09:06:28;;;;;;;106.23;47.47;;;16.00;99.90;;;;;;4981794;28;20303;-81
2022/10/18 09:09:00;;;;;;;116.17;48.30;;;15.90;99.90;;;;;;4999319;28;20197;-81
2022/10/18 09:12:03;;;;;;;115.40;49.53;;;15.90;99.90;;;;;;4982447;28;20181;-81
2022/10/18 09:14:40;;;;;;;117.23;47.83;;;15.90;99.90;;;;;;4968412;28;20205;-81
2022/10/18 09:17:38;;;;;;;104.63;46.93;;;15.90;99.90;;;;;;5008060;28;20192;-80
2022/10/18 09:20:15;;;;;;;98.63;45.43;;;16.00;99.90;;;;;;4988728;28;20240;-80
2022/10/18 09:22:51;;;;;;;109.20;45.37;;;16.00;99.90;;;;;;4983961;28;20264;-81
2022/10/18 09:25:23;;;;;;;100.77;43.80;;;16.00;99.90;;;;;;4999627;28;20165;-81
2022/10/18 09:28:00;;;;;;;83.60;40.13;;;16.00;99.90;;;;;;4999403;28;20182;-81
2022/10/18 09:30:38;;;;;;;88.50;39.00;;;16.00;99.90;;;;;;4997556;28;20197;-81
2022/10/18 09:33:34;;;;;;;84.70;37.43;;;16.00;99.90;;;;;;4980462;28;20224;-82
2022/10/18 09:36:06;;;;;;;81.90;34.77;;;16.10;99.90;;;;;;4962052;28;20173;-81
2022/10/18 09:38:42;;;;;;;72.27;35.10;;;16.00;99.90;;;;;;4960898;28;20270;-81
2022/10/18 09:41:38;;;;;;;72.90;34.17;;;16.00;99.90;;;;;;4979512;28;20155;-81
2022/10/18 09:44:18;;;;;;;65.97;32.23;;;16.10;99.90;;;;;;4961624;28;20163;-82
2022/10/18 09:46:54;;;;;;;73.90;31.47;;;16.10;99.90;;;;;;4965396;28;20170;-81
2022/10/18 09:49:31;;;;;;;79.57;34.30;;;16.10;99.90;;;;;;5000893;28;20280;-81
2022/10/18 09:52:02;;;;;;;70.83;33.60;;;16.20;99.90;;;;;;5003600;28;20161;-81
2022/10/18 09:54:40;;;;;;;85.83;37.40;;;16.30;99.90;;;;;;5004261;28;20177;-81
2022/10/18 09:57:18;;;;;;;86.90;39.47;;;16.30;99.90;;;;;;4985592;28;20596;-81
2022/10/18 09:59:48;;;;;;;90.30;42.57;;;16.40;99.90;;;;;;5002762;28;20232;-82
2022/10/18 10:02:20;;;;;;;102.40;43.63;;;16.40;99.90;;;;;;5003218;28;20212;-81
2022/10/18 10:04:47;;;;;;;87.00;41.27;;;16.40;99.90;;;;;;4980286;28;20208;-82
2022/10/18 10:07:16;;;;;;;81.07;36.87;;;16.50;99.90;;;;;;4981905;28;20194;-81
2022/10/18 10:10:05;;;;;;;84.03;37.87;;;16.50;99.90;;;;;;4982241;28;20197;-81
2022/10/18 10:12:37;;;;;;;74.37;37.30;;;16.50;99.90;;;;;;4973803;28;20692;-81
2022/10/18 10:15:08;;;;;;;73.40;36.63;;;16.70;99.90;;;;;;4983019;28;20655;-81
2022/10/18 10:17:34;;;;;;;78.80;38.27;;;16.70;99.90;;;;;;4982396;28;20167;-82
2022/10/18 10:20:12;;;;;;;80.40;39.50;;;16.80;99.90;;;;;;4969880;28;20201;-80
2022/10/18 10:22:40;;;;;;;75.03;38.30;;;16.80;99.90;;;;;;5001005;28;20197;-81
2022/10/18 10:25:06;;;;;;;69.63;37.10;;;16.80;99.90;;;;;;5000566;28;20189;-81
2022/10/18 10:27:43;;;;;;;61.57;34.37;;;16.80;99.90;;;;;;5000788;28;20173;-81
2022/10/18 10:30:21;;;;;;;67.53;34.23;;;16.80;99.90;;;;;;5001394;28;20196;-81
2022/10/18 10:32:48;;;;;;;71.57;37.23;;;16.80;99.90;;;;;;4983764;28;20208;-81
2022/10/18 10:35:40;;;;;;;73.17;38.13;;;16.80;99.90;;;;;;4983751;28;20174;-82
2022/10/18 10:38:06;;;;;;;74.77;37.80;;;16.80;99.90;;;;;;4968174;28;20361;-81
2022/10/18 10:40:52;;;;;;;71.80;37.50;;;16.90;99.90;;;;;;4983632;28;20190;-82
2022/10/18 10:43:28;;;;;;;64.87;34.13;;;16.90;99.90;;;;;;4983170;28;20188;-81
2022/10/18 10:46:03;;;;;;;69.90;35.90;;;17.00;99.90;;;;;;4983141;28;20184;-81
2022/10/18 10:48:43;;;;;;;63.03;33.97;;;17.00;99.90;;;;;;4983709;28;20169;-81
2022/10/18 10:51:11;;;;;;;65.87;34.40;;;17.00;99.90;;;;;;4982827;28;20170;-81
2022/10/18 10:53:45;;;;;;;57.50;32.53;;;17.00;99.90;;;;;;4999380;28;20204;-81
2022/10/18 10:56:24;;;;;;;57.87;29.37;;;17.00;99.90;;;;;;4999231;28;20208;-81
2022/10/18 10:58:51;;;;;;;50.43;26.90;;;17.00;99.90;;;;;;5000737;28;20212;-81
2022/10/18 11:01:31;;;;;;;46.30;25.50;;;17.00;99.90;;;;;;5000919;28;20249;-81
2022/10/18 11:04:20;;;;;;;45.67;23.60;;;17.00;99.90;;;;;;5000600;28;20170;-81
2022/10/18 11:07:07;;;;;;;48.07;25.63;;;17.00;99.90;;;;;;5000643;28;20168;-81
2022/10/18 11:10:10;;;;;;;42.20;23.70;;;17.10;99.90;;;;;;4999818;28;20690;-79
2022/10/18 11:12:44;;;;;;;39.37;23.57;;;17.00;99.90;;;;;;4982374;28;20201;-80
2022/10/18 11:15:12;;;;;;;37.83;21.60;;;17.00;99.90;;;;;;4981592;28;20232;-79
2022/10/18 11:17:40;;;;;;;35.97;20.17;;;17.00;99.90;;;;;;4998538;28;20252;-79
2022/10/18 11:20:06;;;;;;;35.50;19.97;;;17.00;99.90;;;;;;4998975;28;20189;-78
2022/10/18 11:22:37;;;;;;;34.27;18.63;;;17.00;99.90;;;;;;4999283;28;20244;-79
2022/10/18 11:25:04;;;;;;;37.00;18.23;;;17.00;99.90;;;;;;4979726;28;20185;-79
2022/10/18 11:27:39;;;;;;;35.07;18.13;;;17.10;99.90;;;;;;4998471;28;20188;-79
2022/10/18 11:30:25;;;;;;;29.40;16.93;;;17.20;99.90;;;;;;4999384;28;20247;-80
2022/10/18 11:33:13;;;;;;;26.93;17.17;;;17.20;99.90;;;;;;4981464;28;20300;-77
2022/10/18 11:36:03;;;;;;;28.10;15.47;;;17.30;99.90;;;;;;4998508;28;20252;-78
2022/10/18 11:38:33;;;;;;;24.37;13.60;;;17.40;99.90;;;;;;5000766;28;20147;-80
2022/10/18 11:41:13;;;;;;;18.27;11.83;;;17.40;99.90;;;;;;4982512;28;20209;-79
2022/10/18 11:43:55;;;;;;;17.77;9.97;;;17.50;99.90;;;;;;4999375;28;20189;-78
2022/10/18 11:46:45;;;;;;;17.17;9.50;;;17.60;99.90;;;;;;4980993;28;20185;-79
2022/10/18 11:49:43;;;;;;;19.23;9.87;;;17.60;99.90;;;;;;4980666;28;20237;-79
2022/10/18 11:52:40;;;;;;;17.70;9.63;;;17.70;99.90;;;;;;4992696;28;20561;-80
2022/10/18 11:55:24;;;;;;;14.67;9.30;;;17.80;99.90;;;;;;4998649;28;20612;-80
2022/10/18 11:58:12;;;;;;;16.93;9.83;;;17.90;99.90;;;;;;4998713;28;20563;-80
2022/10/18 12:00:51;;;;;;;18.47;9.57;;;17.90;99.90;;;;;;4998739;28;20231;-78
2022/10/18 12:03:38;;;;;;;17.53;9.97;;;18.00;99.90;;;;;;4979842;28;20640;-77
2022/10/18 12:06:12;;;;;;;18.13;9.10;;;18.10;99.90;;;;;;4978875;28;20587;-80
2022/10/18 12:09:15;;;;;;;17.07;8.87;;;18.10;99.90;;;;;;4978628;28;20155;-77
2022/10/18 12:11:50;;;;;;;15.73;7.93;;;18.10;99.90;;;;;;4978795;28;20185;-80
2022/10/18 12:14:24;;;;;;;14.77;7.63;;;18.00;99.90;;;;;;4978693;28;20189;-80
2022/10/18 12:16:51;;;;;;;15.93;7.13;;;18.00;99.90;;;;;;4960791;28;20173;-80
2022/10/18 12:19:24;;;;;;;15.63;8.33;;;18.00;99.90;;;;;;4961597;28;20277;-81
2022/10/18 12:21:51;;;;;;;14.80;8.73;;;18.00;99.90;;;;;;4980068;28;20194;-80
2022/10/18 12:24:21;;;;;;;18.23;9.23;;;18.00;99.90;;;;;;4979096;28;20501;-80
2022/10/18 12:26:51;;;;;;;17.73;8.70;;;18.10;99.90;;;;;;4978589;28;20206;-80
2022/10/18 12:29:53;;;;;;;14.33;7.90;;;18.10;99.90;;;;;;4978599;28;20210;-80
2022/10/18 12:32:24;;;;;;;18.30;7.33;;;18.00;99.90;;;;;;4961448;28;20297;-80
2022/10/18 12:34:58;;;;;;;14.53;7.97;;;18.00;99.90;;;;;;4978491;28;20158;-80
2022/10/18 12:37:36;;;;;;;17.07;6.73;;;18.10;99.90;;;;;;4990402;28;20651;-80
2022/10/18 12:40:04;;;;;;;12.93;6.07;;;18.00;99.90;;;;;;4998109;28;20191;-79
2022/10/18 12:42:32;;;;;;;11.30;5.57;;;18.00;99.90;;;;;;4997812;28;20177;-79
2022/10/18 12:45:05;;;;;;;11.57;4.93;;;17.90;99.90;;;;;;4997530;28;20178;-80
2022/10/18 12:47:31;;;;;;;11.70;5.40;;;17.90;99.90;;;;;;4967625;28;20201;-80
2022/10/18 12:50:02;;;;;;;9.10;5.43;;;17.90;99.90;;;;;;4978320;28;20205;-80
2022/10/18 12:52:32;;;;;;;14.90;7.17;;;17.80;99.90;;;;;;4978328;28;20288;-80
2022/10/18 12:55:06;;;;;;;18.97;6.40;;;17.70;99.90;;;;;;4977633;28;20163;-76
2022/10/18 12:57:50;;;;;;;12.53;5.50;;;17.80;99.90;;;;;;4971635;28;20185;-78